Mountain Home Air Force Base
KMUO : now visible

Airfield :











YOU CAN JOIN US ON...

 
LOGIN :

Register | Disclaimer

   EN    FR    IT 

 









Legend :    VFR   Marginal VFR   IFR   Intensive IFR   Very Intensive IFR
Visi :
Ceiling :
>= 8 km
>= 3000ft
5 to 8 km
1000 to 3000 ft
1500m to 5 km
500 to 1000 ft
800 to 1500m
200 to 500 ft
< 800m
< 200 ft
Symbols :   Thunderstorms  Fog  Heavy snow  Heavy precipitations  Wind > 20 kt






- Airport Elevation : 2996 ft


KMUO - Mountain Home Air Force Base

CURRENT METAR :
  • 170358Z AUTO 31012KT 10SM CLR 01/M04 A3013 RMK AO2 SLP221 T00131036 $

EXPIRED METARs :
  • 170258Z AUTO 32013KT 10SM CLR 02/M03 A3011 RMK AO2 SLP214 60000 T00221033 52023 $
  • 170243Z AUTO 32012KT 10SM SCT065 03/M03 A3010 RMK AO2 SLP208 $
  • 170213Z AUTO 31013KT 10SM BKN065 04/M02 A3009 RMK AO2 SLP205 $
  • 170158Z AUTO 31013KT 10SM SCT065 BKN080 05/00 A3008 RMK AO2 RAB04E17DZB17E18 SLP199 P0000 T00460002 $
  • 170148Z AUTO 31016G21KT 10SM FEW036 FEW043 SCT060 BKN075 05/03 A3007 RMK AO2 RAB04E17DZB17E18 SLP196 $

Expired Forecast.



MET'MAP, your aeronautical weather chart ! - Copyright ORBIFLY December 2007 - Disclaimer

ORBIFLY MET'MAP TEAM :

Programming & Development : Alexandra Zaïnal
Concept & original design : Baudouin d'Aumeries
Assistance for programming : Marc-Olivier Méhu
Technical & hardware support : Manuel Goepfert

Contact : metmap@orbifly.com




SOURCES & CREDITS :

   NOAA       Earth
Advisory